sensor_id;sensor_type;location;lat;lon;timestamp;temperature;humidity
52181;DHT22;38158;53.338;6.514;2022-07-23T00:01:21;15.00;99.90
52181;DHT22;38158;53.338;6.514;2022-07-23T00:03:47;15.00;99.90
52181;DHT22;38158;53.338;6.514;2022-07-23T00:06:13;14.90;99.90
52181;DHT22;38158;53.338;6.514;2022-07-23T00:08:38;14.90;99.90
52181;DHT22;38158;53.338;6.514;2022-07-23T00:11:04;14.90;99.90
52181;DHT22;38158;53.338;6.514;2022-07-23T00:13:30;14.90;99.90
52181;DHT22;38158;53.338;6.514;2022-07-23T00:15:56;14.90;99.90
52181;DHT22;38158;53.338;6.514;2022-07-23T00:18:22;14.80;99.90
52181;DHT22;38158;53.338;6.514;2022-07-23T00:20:48;14.70;99.90
52181;DHT22;38158;53.338;6.514;2022-07-23T00:23:14;14.70;99.90
52181;DHT22;38158;53.338;6.514;2022-07-23T00:25:39;14.70;99.90
52181;DHT22;38158;53.338;6.514;2022-07-23T00:28:05;14.70;99.90
52181;DHT22;38158;53.338;6.514;2022-07-23T00:30:31;14.70;99.90
52181;DHT22;38158;53.338;6.514;2022-07-23T00:33:03;14.70;99.90
52181;DHT22;38158;53.338;6.514;2022-07-23T00:35:31;14.70;99.90
52181;DHT22;38158;53.338;6.514;2022-07-23T00:37:58;14.70;99.90
52181;DHT22;38158;53.338;6.514;2022-07-23T00:40:26;14.70;99.90
52181;DHT22;38158;53.338;6.514;2022-07-23T00:42:52;14.70;99.90
52181;DHT22;38158;53.338;6.514;2022-07-23T00:45:18;14.70;99.90
52181;DHT22;38158;53.338;6.514;2022-07-23T00:47:44;14.70;99.90
52181;DHT22;38158;53.338;6.514;2022-07-23T00:50:10;14.70;99.90
52181;DHT22;38158;53.338;6.514;2022-07-23T00:52:37;14.60;99.90
52181;DHT22;38158;53.338;6.514;2022-07-23T00:55:05;14.70;99.90
52181;DHT22;38158;53.338;6.514;2022-07-23T00:57:31;14.70;99.90
52181;DHT22;38158;53.338;6.514;2022-07-23T00:59:57;14.70;99.90
52181;DHT22;38158;53.338;6.514;2022-07-23T01:02:24;14.70;99.90
52181;DHT22;38158;53.338;6.514;2022-07-23T01:04:50;14.70;99.90
52181;DHT22;38158;53.338;6.514;2022-07-23T01:07:16;14.70;99.90
52181;DHT22;38158;53.338;6.514;2022-07-23T01:09:43;14.60;99.90
52181;DHT22;38158;53.338;6.514;2022-07-23T01:12:09;14.70;99.90
52181;DHT22;38158;53.338;6.514;2022-07-23T01:14:35;14.70;99.90
52181;DHT22;38158;53.338;6.514;2022-07-23T01:17:00;14.70;99.90
52181;DHT22;38158;53.338;6.514;2022-07-23T01:19:26;14.70;99.90
52181;DHT22;38158;53.338;6.514;2022-07-23T01:21:53;14.60;99.90
52181;DHT22;38158;53.338;6.514;2022-07-23T01:24:19;14.70;99.90
52181;DHT22;38158;53.338;6.514;2022-07-23T01:26:46;14.70;99.90
52181;DHT22;38158;53.338;6.514;2022-07-23T01:29:13;14.70;99.90
52181;DHT22;38158;53.338;6.514;2022-07-23T01:31:39;14.70;99.90
52181;DHT22;38158;53.338;6.514;2022-07-23T01:34:05;14.80;99.90
52181;DHT22;38158;53.338;6.514;2022-07-23T01:36:33;14.70;99.90
52181;DHT22;38158;53.338;6.514;2022-07-23T01:38:58;14.70;99.90
52181;DHT22;38158;53.338;6.514;2022-07-23T01:41:24;14.70;99.90
52181;DHT22;38158;53.338;6.514;2022-07-23T01:43:50;14.70;99.90
52181;DHT22;38158;53.338;6.514;2022-07-23T01:46:16;14.70;99.90
52181;DHT22;38158;53.338;6.514;2022-07-23T01:48:41;14.70;99.90
52181;DHT22;38158;53.338;6.514;2022-07-23T01:51:07;14.60;99.90
52181;DHT22;38158;53.338;6.514;2022-07-23T01:53:33;14.60;99.90
52181;DHT22;38158;53.338;6.514;2022-07-23T01:55:59;14.60;99.90
52181;DHT22;38158;53.338;6.514;2022-07-23T01:58:26;14.60;99.90
52181;DHT22;38158;53.338;6.514;2022-07-23T02:00:52;14.60;99.90
52181;DHT22;38158;53.338;6.514;2022-07-23T02:03:18;14.60;99.90
52181;DHT22;38158;53.338;6.514;2022-07-23T02:05:43;14.60;99.90
52181;DHT22;38158;53.338;6.514;2022-07-23T02:08:09;14.50;99.90
52181;DHT22;38158;53.338;6.514;2022-07-23T02:10:35;14.50;99.90
52181;DHT22;38158;53.338;6.514;2022-07-23T02:13:00;14.50;99.90
52181;DHT22;38158;53.338;6.514;2022-07-23T02:15:26;14.50;99.90
52181;DHT22;38158;53.338;6.514;2022-07-23T02:17:52;14.50;99.90
52181;DHT22;38158;53.338;6.514;2022-07-23T02:20:18;14.50;99.90
52181;DHT22;38158;53.338;6.514;2022-07-23T02:22:44;14.50;99.90
52181;DHT22;38158;53.338;6.514;2022-07-23T02:25:09;14.50;99.90
52181;DHT22;38158;53.338;6.514;2022-07-23T02:27:35;14.50;99.90
52181;DHT22;38158;53.338;6.514;2022-07-23T02:30:02;14.50;99.90
52181;DHT22;38158;53.338;6.514;2022-07-23T02:32:28;14.50;99.90
52181;DHT22;38158;53.338;6.514;2022-07-23T02:34:53;14.50;99.90
52181;DHT22;38158;53.338;6.514;2022-07-23T02:37:19;14.50;99.90
52181;DHT22;38158;53.338;6.514;2022-07-23T02:39:45;14.50;99.90
52181;DHT22;38158;53.338;6.514;2022-07-23T02:42:10;14.50;99.90
52181;DHT22;38158;53.338;6.514;2022-07-23T02:44:36;14.50;99.90
52181;DHT22;38158;53.338;6.514;2022-07-23T02:47:02;14.50;99.90
52181;DHT22;38158;53.338;6.514;2022-07-23T02:49:27;14.50;99.90
52181;DHT22;38158;53.338;6.514;2022-07-23T02:51:53;14.50;99.90
52181;DHT22;38158;53.338;6.514;2022-07-23T02:54:19;14.50;99.90
52181;DHT22;38158;53.338;6.514;2022-07-23T02:56:46;14.50;99.90
52181;DHT22;38158;53.338;6.514;2022-07-23T02:59:11;14.50;99.90
52181;DHT22;38158;53.338;6.514;2022-07-23T03:01:37;14.50;99.90
52181;DHT22;38158;53.338;6.514;2022-07-23T03:04:03;14.50;99.90
52181;DHT22;38158;53.338;6.514;2022-07-23T03:06:29;13.90;99.90
52181;DHT22;38158;53.338;6.514;2022-07-23T03:08:54;14.50;99.90
52181;DHT22;38158;53.338;6.514;2022-07-23T03:11:20;14.50;99.90
52181;DHT22;38158;53.338;6.514;2022-07-23T03:13:46;14.50;99.90
52181;DHT22;38158;53.338;6.514;2022-07-23T03:16:11;14.50;99.90
52181;DHT22;38158;53.338;6.514;2022-07-23T03:18:37;14.50;99.90
52181;DHT22;38158;53.338;6.514;2022-07-23T03:21:03;14.50;99.90
52181;DHT22;38158;53.338;6.514;2022-07-23T03:23:29;14.50;99.90
52181;DHT22;38158;53.338;6.514;2022-07-23T03:25:54;14.50;99.90
52181;DHT22;38158;53.338;6.514;2022-07-23T03:28:20;14.50;99.90
52181;DHT22;38158;53.338;6.514;2022-07-23T03:30:46;14.50;99.90
52181;DHT22;38158;53.338;6.514;2022-07-23T03:33:16;14.50;99.90
52181;DHT22;38158;53.338;6.514;2022-07-23T03:35:46;14.50;99.90
52181;DHT22;38158;53.338;6.514;2022-07-23T03:38:12;14.40;99.90
52181;DHT22;38158;53.338;6.514;2022-07-23T03:40:38;14.40;99.90
52181;DHT22;38158;53.338;6.514;2022-07-23T03:43:04;14.40;99.90
52181;DHT22;38158;53.338;6.514;2022-07-23T03:45:30;14.40;99.90
52181;DHT22;38158;53.338;6.514;2022-07-23T03:47:56;14.40;99.90
52181;DHT22;38158;53.338;6.514;2022-07-23T03:50:22;14.40;99.90
52181;DHT22;38158;53.338;6.514;2022-07-23T03:52:47;14.40;99.90
52181;DHT22;38158;53.338;6.514;2022-07-23T03:55:14;14.40;99.90
52181;DHT22;38158;53.338;6.514;2022-07-23T03:57:40;14.40;99.90
52181;DHT22;38158;53.338;6.514;2022-07-23T04:00:07;14.40;99.90
52181;DHT22;38158;53.338;6.514;2022-07-23T04:02:34;14.40;99.90
52181;DHT22;38158;53.338;6.514;2022-07-23T04:05:00;14.40;99.90
52181;DHT22;38158;53.338;6.514;2022-07-23T04:07:26;14.50;99.90
52181;DHT22;38158;53.338;6.514;2022-07-23T04:09:52;14.50;99.90
52181;DHT22;38158;53.338;6.514;2022-07-23T04:12:18;14.60;99.90
52181;DHT22;38158;53.338;6.514;2022-07-23T04:14:43;14.50;99.90
52181;DHT22;38158;53.338;6.514;2022-07-23T04:17:09;14.50;99.90
52181;DHT22;38158;53.338;6.514;2022-07-23T04:19:35;14.50;99.90
52181;DHT22;38158;53.338;6.514;2022-07-23T04:22:08;14.50;99.90
52181;DHT22;38158;53.338;6.514;2022-07-23T04:24:34;14.50;99.90
52181;DHT22;38158;53.338;6.514;2022-07-23T04:27:00;14.50;99.90
52181;DHT22;38158;53.338;6.514;2022-07-23T04:29:26;14.50;99.90
52181;DHT22;38158;53.338;6.514;2022-07-23T04:31:52;14.50;99.90
52181;DHT22;38158;53.338;6.514;2022-07-23T04:34:17;14.50;99.90
52181;DHT22;38158;53.338;6.514;2022-07-23T04:36:43;14.50;99.90
52181;DHT22;38158;53.338;6.514;2022-07-23T04:39:09;14.50;99.90
52181;DHT22;38158;53.338;6.514;2022-07-23T04:41:34;14.50;99.90
52181;DHT22;38158;53.338;6.514;2022-07-23T04:44:01;14.60;99.90
52181;DHT22;38158;53.338;6.514;2022-07-23T04:46:27;14.70;99.90
52181;DHT22;38158;53.338;6.514;2022-07-23T04:48:53;14.70;99.90
52181;DHT22;38158;53.338;6.514;2022-07-23T04:51:19;14.70;99.90
52181;DHT22;38158;53.338;6.514;2022-07-23T04:53:45;14.80;99.90
52181;DHT22;38158;53.338;6.514;2022-07-23T04:56:10;14.80;99.90
52181;DHT22;38158;53.338;6.514;2022-07-23T04:58:36;14.80;99.90
52181;DHT22;38158;53.338;6.514;2022-07-23T05:01:02;14.80;99.90
52181;DHT22;38158;53.338;6.514;2022-07-23T05:03:28;14.80;99.90
52181;DHT22;38158;53.338;6.514;2022-07-23T05:05:54;14.80;99.90
52181;DHT22;38158;53.338;6.514;2022-07-23T05:08:20;14.80;99.90
52181;DHT22;38158;53.338;6.514;2022-07-23T05:10:45;14.90;99.90
52181;DHT22;38158;53.338;6.514;2022-07-23T05:13:11;14.90;99.90
52181;DHT22;38158;53.338;6.514;2022-07-23T05:15:37;14.90;99.90
52181;DHT22;38158;53.338;6.514;2022-07-23T05:18:02;14.90;99.90
52181;DHT22;38158;53.338;6.514;2022-07-23T05:20:28;14.90;99.90
52181;DHT22;38158;53.338;6.514;2022-07-23T05:22:54;14.90;99.90
52181;DHT22;38158;53.338;6.514;2022-07-23T05:25:19;14.90;99.90
52181;DHT22;38158;53.338;6.514;2022-07-23T05:27:45;15.00;99.90
52181;DHT22;38158;53.338;6.514;2022-07-23T05:30:11;15.00;99.90
52181;DHT22;38158;53.338;6.514;2022-07-23T05:32:37;15.10;99.90
52181;DHT22;38158;53.338;6.514;2022-07-23T05:35:04;15.10;99.90
52181;DHT22;38158;53.338;6.514;2022-07-23T05:37:30;15.20;99.90
52181;DHT22;38158;53.338;6.514;2022-07-23T05:40:04;15.20;99.90
52181;DHT22;38158;53.338;6.514;2022-07-23T05:42:31;15.20;99.90
52181;DHT22;38158;53.338;6.514;2022-07-23T05:44:57;15.20;99.90
52181;DHT22;38158;53.338;6.514;2022-07-23T05:47:23;15.20;99.90
52181;DHT22;38158;53.338;6.514;2022-07-23T05:49:48;15.20;99.90
52181;DHT22;38158;53.338;6.514;2022-07-23T05:52:14;15.20;99.90
52181;DHT22;38158;53.338;6.514;2022-07-23T05:54:40;15.30;99.90
52181;DHT22;38158;53.338;6.514;2022-07-23T05:57:06;15.30;99.90
52181;DHT22;38158;53.338;6.514;2022-07-23T05:59:31;15.20;99.90
52181;DHT22;38158;53.338;6.514;2022-07-23T06:01:57;15.30;99.90
52181;DHT22;38158;53.338;6.514;2022-07-23T06:04:23;15.20;99.90
52181;DHT22;38158;53.338;6.514;2022-07-23T06:06:48;15.20;99.90
52181;DHT22;38158;53.338;6.514;2022-07-23T06:09:14;15.30;99.90
52181;DHT22;38158;53.338;6.514;2022-07-23T06:11:40;15.30;99.90
52181;DHT22;38158;53.338;6.514;2022-07-23T06:14:06;15.50;99.90
52181;DHT22;38158;53.338;6.514;2022-07-23T06:16:32;15.50;99.90
52181;DHT22;38158;53.338;6.514;2022-07-23T06:18:57;15.60;99.90
52181;DHT22;38158;53.338;6.514;2022-07-23T06:21:23;15.60;99.90
52181;DHT22;38158;53.338;6.514;2022-07-23T06:23:49;15.70;99.90
52181;DHT22;38158;53.338;6.514;2022-07-23T06:26:15;15.70;99.90
52181;DHT22;38158;53.338;6.514;2022-07-23T06:28:40;15.80;99.90
52181;DHT22;38158;53.338;6.514;2022-07-23T06:31:06;15.80;99.90
52181;DHT22;38158;53.338;6.514;2022-07-23T06:33:33;15.90;99.90
52181;DHT22;38158;53.338;6.514;2022-07-23T06:35:59;15.90;99.90
52181;DHT22;38158;53.338;6.514;2022-07-23T06:38:25;16.00;99.90
52181;DHT22;38158;53.338;6.514;2022-07-23T06:40:51;16.10;99.90
52181;DHT22;38158;53.338;6.514;2022-07-23T06:43:16;16.20;99.90
52181;DHT22;38158;53.338;6.514;2022-07-23T06:45:42;16.30;99.90
52181;DHT22;38158;53.338;6.514;2022-07-23T06:48:08;16.30;99.90
52181;DHT22;38158;53.338;6.514;2022-07-23T06:50:33;16.30;99.90
52181;DHT22;38158;53.338;6.514;2022-07-23T06:52:59;16.30;99.90
52181;DHT22;38158;53.338;6.514;2022-07-23T06:55:25;16.40;99.90
52181;DHT22;38158;53.338;6.514;2022-07-23T06:57:51;16.40;99.90
52181;DHT22;38158;53.338;6.514;2022-07-23T07:00:17;16.50;99.90
52181;DHT22;38158;53.338;6.514;2022-07-23T07:02:42;16.50;99.90
52181;DHT22;38158;53.338;6.514;2022-07-23T07:05:08;16.60;99.90
52181;DHT22;38158;53.338;6.514;2022-07-23T07:07:34;16.70;99.90
52181;DHT22;38158;53.338;6.514;2022-07-23T07:10:01;16.90;99.90
52181;DHT22;38158;53.338;6.514;2022-07-23T07:12:27;17.00;99.90
52181;DHT22;38158;53.338;6.514;2022-07-23T07:14:53;17.20;99.90
52181;DHT22;38158;53.338;6.514;2022-07-23T07:17:19;17.40;99.90
52181;DHT22;38158;53.338;6.514;2022-07-23T07:19:44;17.60;99.90
52181;DHT22;38158;53.338;6.514;2022-07-23T07:22:10;17.70;99.90
52181;DHT22;38158;53.338;6.514;2022-07-23T07:24:36;17.80;99.90
52181;DHT22;38158;53.338;6.514;2022-07-23T07:27:01;17.70;99.90
52181;DHT22;38158;53.338;6.514;2022-07-23T07:29:27;17.50;99.90
52181;DHT22;38158;53.338;6.514;2022-07-23T07:31:54;17.40;99.90
52181;DHT22;38158;53.338;6.514;2022-07-23T07:34:20;17.30;99.90
52181;DHT22;38158;53.338;6.514;2022-07-23T07:36:45;17.20;99.90
52181;DHT22;38158;53.338;6.514;2022-07-23T07:39:11;17.10;99.90
52181;DHT22;38158;53.338;6.514;2022-07-23T07:41:37;17.20;99.90
52181;DHT22;38158;53.338;6.514;2022-07-23T07:44:02;17.20;99.90
52181;DHT22;38158;53.338;6.514;2022-07-23T07:46:28;17.30;99.90
52181;DHT22;38158;53.338;6.514;2022-07-23T07:48:54;17.20;99.90
52181;DHT22;38158;53.338;6.514;2022-07-23T07:51:20;17.20;99.90
52181;DHT22;38158;53.338;6.514;2022-07-23T07:53:45;17.20;99.90
52181;DHT22;38158;53.338;6.514;2022-07-23T07:56:11;17.10;99.90
52181;DHT22;38158;53.338;6.514;2022-07-23T07:58:37;17.20;99.90
52181;DHT22;38158;53.338;6.514;2022-07-23T08:01:02;17.20;99.90
52181;DHT22;38158;53.338;6.514;2022-07-23T08:03:29;17.40;99.90
52181;DHT22;38158;53.338;6.514;2022-07-23T08:05:55;17.60;99.70
52181;DHT22;38158;53.338;6.514;2022-07-23T08:08:20;17.70;99.30
52181;DHT22;38158;53.338;6.514;2022-07-23T08:10:46;17.80;98.60
52181;DHT22;38158;53.338;6.514;2022-07-23T08:13:13;17.80;98.10
52181;DHT22;38158;53.338;6.514;2022-07-23T08:15:40;17.80;97.60
52181;DHT22;38158;53.338;6.514;2022-07-23T08:18:06;17.70;98.00
52181;DHT22;38158;53.338;6.514;2022-07-23T08:20:31;17.70;98.30
52181;DHT22;38158;53.338;6.514;2022-07-23T08:23:04;17.70;98.10
52181;DHT22;38158;53.338;6.514;2022-07-23T08:25:50;17.80;97.00
52181;DHT22;38158;53.338;6.514;2022-07-23T08:28:16;18.10;91.80
52181;DHT22;38158;53.338;6.514;2022-07-23T08:30:43;18.20;93.50
52181;DHT22;38158;53.338;6.514;2022-07-23T08:33:11;18.30;92.80
52181;DHT22;38158;53.338;6.514;2022-07-23T08:35:44;18.20;92.30
52181;DHT22;38158;53.338;6.514;2022-07-23T08:38:13;18.20;91.70
52181;DHT22;38158;53.338;6.514;2022-07-23T08:40:42;18.30;91.30
52181;DHT22;38158;53.338;6.514;2022-07-23T08:43:10;18.40;91.60
52181;DHT22;38158;53.338;6.514;2022-07-23T08:45:44;18.60;91.70
52181;DHT22;38158;53.338;6.514;2022-07-23T08:48:18;18.70;91.50
52181;DHT22;38158;53.338;6.514;2022-07-23T08:50:46;18.80;90.90
52181;DHT22;38158;53.338;6.514;2022-07-23T08:53:12;18.90;91.70
52181;DHT22;38158;53.338;6.514;2022-07-23T08:55:38;19.10;91.70
52181;DHT22;38158;53.338;6.514;2022-07-23T08:58:04;19.10;90.50
52181;DHT22;38158;53.338;6.514;2022-07-23T09:00:31;19.20;91.20
52181;DHT22;38158;53.338;6.514;2022-07-23T09:02:57;19.20;91.70
52181;DHT22;38158;53.338;6.514;2022-07-23T09:05:23;19.20;87.80
52181;DHT22;38158;53.338;6.514;2022-07-23T09:08:09;19.10;91.40
52181;DHT22;38158;53.338;6.514;2022-07-23T09:13:28;19.20;90.70
52181;DHT22;38158;53.338;6.514;2022-07-23T09:15:56;19.30;91.10
52181;DHT22;38158;53.338;6.514;2022-07-23T09:18:34;19.30;91.90
52181;DHT22;38158;53.338;6.514;2022-07-23T09:31:59;18.80;92.30
52181;DHT22;38158;53.338;6.514;2022-07-23T09:34:28;18.80;92.60
52181;DHT22;38158;53.338;6.514;2022-07-23T09:37:13;18.70;93.10
52181;DHT22;38158;53.338;6.514;2022-07-23T09:39:40;18.70;91.50
52181;DHT22;38158;53.338;6.514;2022-07-23T09:42:13;18.80;92.80
52181;DHT22;38158;53.338;6.514;2022-07-23T09:44:44;18.80;91.20
52181;DHT22;38158;53.338;6.514;2022-07-23T09:47:10;18.80;92.80
52181;DHT22;38158;53.338;6.514;2022-07-23T09:49:36;18.90;93.00
52181;DHT22;38158;53.338;6.514;2022-07-23T09:52:02;18.90;92.80
52181;DHT22;38158;53.338;6.514;2022-07-23T09:54:36;18.90;92.50
52181;DHT22;38158;53.338;6.514;2022-07-23T09:57:08;18.90;92.30
52181;DHT22;38158;53.338;6.514;2022-07-23T09:59:38;19.00;92.80
52181;DHT22;38158;53.338;6.514;2022-07-23T10:02:05;19.10;92.50
52181;DHT22;38158;53.338;6.514;2022-07-23T10:04:32;19.20;92.40
52181;DHT22;38158;53.338;6.514;2022-07-23T10:07:03;19.30;92.20
52181;DHT22;38158;53.338;6.514;2022-07-23T10:09:35;19.30;91.30
52181;DHT22;38158;53.338;6.514;2022-07-23T10:12:03;19.30;91.60
52181;DHT22;38158;53.338;6.514;2022-07-23T10:14:32;19.30;91.90
52181;DHT22;38158;53.338;6.514;2022-07-23T10:17:04;19.40;92.50
52181;DHT22;38158;53.338;6.514;2022-07-23T10:19:30;19.40;92.30
52181;DHT22;38158;53.338;6.514;2022-07-23T10:22:20;19.40;92.00
52181;DHT22;38158;53.338;6.514;2022-07-23T10:25:22;19.40;91.20
52181;DHT22;38158;53.338;6.514;2022-07-23T10:33:52;19.10;92.20
52181;DHT22;38158;53.338;6.514;2022-07-23T10:39:03;19.00;93.80
52181;DHT22;38158;53.338;6.514;2022-07-23T10:41:32;18.90;94.00
52181;DHT22;38158;53.338;6.514;2022-07-23T10:44:20;18.80;94.50
52181;DHT22;38158;53.338;6.514;2022-07-23T10:47:03;18.80;94.30
52181;DHT22;38158;53.338;6.514;2022-07-23T10:49:47;18.80;95.00
52181;DHT22;38158;53.338;6.514;2022-07-23T10:57:13;19.10;94.40
52181;DHT22;38158;53.338;6.514;2022-07-23T11:02:33;19.50;92.80
52181;DHT22;38158;53.338;6.514;2022-07-23T11:05:00;19.60;93.00
52181;DHT22;38158;53.338;6.514;2022-07-23T11:07:27;19.50;93.10
52181;DHT22;38158;53.338;6.514;2022-07-23T11:09:53;19.50;93.10
52181;DHT22;38158;53.338;6.514;2022-07-23T11:15:10;19.60;93.20
52181;DHT22;38158;53.338;6.514;2022-07-23T11:22:54;19.60;93.00
52181;DHT22;38158;53.338;6.514;2022-07-23T11:28:07;19.60;92.50
52181;DHT22;38158;53.338;6.514;2022-07-23T11:35:35;19.90;93.10
52181;DHT22;38158;53.338;6.514;2022-07-23T11:38:08;19.90;93.10
52181;DHT22;38158;53.338;6.514;2022-07-23T11:40:39;20.00;92.90
52181;DHT22;38158;53.338;6.514;2022-07-23T11:43:07;19.90;92.90
52181;DHT22;38158;53.338;6.514;2022-07-23T11:45:37;19.80;92.60
52181;DHT22;38158;53.338;6.514;2022-07-23T11:48:04;19.70;92.50
52181;DHT22;38158;53.338;6.514;2022-07-23T11:50:30;19.60;93.00
52181;DHT22;38158;53.338;6.514;2022-07-23T11:52:56;19.60;93.00
52181;DHT22;38158;53.338;6.514;2022-07-23T11:55:22;19.60;93.10
52181;DHT22;38158;53.338;6.514;2022-07-23T11:57:51;19.70;93.30
52181;DHT22;38158;53.338;6.514;2022-07-23T12:00:28;19.80;93.10
52181;DHT22;38158;53.338;6.514;2022-07-23T12:02:57;19.90;92.40
52181;DHT22;38158;53.338;6.514;2022-07-23T12:05:32;20.00;93.20
52181;DHT22;38158;53.338;6.514;2022-07-23T12:07:59;20.00;92.40
52181;DHT22;38158;53.338;6.514;2022-07-23T12:10:37;19.90;92.60
52181;DHT22;38158;53.338;6.514;2022-07-23T12:13:14;19.90;92.90
52181;DHT22;38158;53.338;6.514;2022-07-23T12:15:45;19.90;93.10
52181;DHT22;38158;53.338;6.514;2022-07-23T12:18:14;19.90;93.00
52181;DHT22;38158;53.338;6.514;2022-07-23T12:20:43;20.00;92.80
52181;DHT22;38158;53.338;6.514;2022-07-23T12:23:11;19.90;92.60
52181;DHT22;38158;53.338;6.514;2022-07-23T12:25:39;20.00;92.70
52181;DHT22;38158;53.338;6.514;2022-07-23T12:28:14;20.10;92.80
52181;DHT22;38158;53.338;6.514;2022-07-23T12:30:43;20.30;92.40
52181;DHT22;38158;53.338;6.514;2022-07-23T12:33:11;20.40;92.30
52181;DHT22;38158;53.338;6.514;2022-07-23T12:35:42;20.50;92.60
52181;DHT22;38158;53.338;6.514;2022-07-23T12:38:13;20.50;91.90
52181;DHT22;38158;53.338;6.514;2022-07-23T12:40:45;20.40;91.60
52181;DHT22;38158;53.338;6.514;2022-07-23T12:43:35;20.50;91.90
52181;DHT22;38158;53.338;6.514;2022-07-23T12:46:18;20.60;91.30
52181;DHT22;38158;53.338;6.514;2022-07-23T12:51:19;20.70;91.40
52181;DHT22;38158;53.338;6.514;2022-07-23T12:53:47;20.80;90.90
52181;DHT22;38158;53.338;6.514;2022-07-23T12:56:17;20.70;90.50
52181;DHT22;38158;53.338;6.514;2022-07-23T12:58:53;20.50;90.40
52181;DHT22;38158;53.338;6.514;2022-07-23T13:06:24;20.40;90.40
52181;DHT22;38158;53.338;6.514;2022-07-23T13:08:50;20.40;90.70
52181;DHT22;38158;53.338;6.514;2022-07-23T13:11:15;20.40;91.20
52181;DHT22;38158;53.338;6.514;2022-07-23T13:13:41;20.60;91.20
52181;DHT22;38158;53.338;6.514;2022-07-23T13:16:07;20.90;91.10
52181;DHT22;38158;53.338;6.514;2022-07-23T13:18:33;21.10;91.10
52181;DHT22;38158;53.338;6.514;2022-07-23T13:20:59;21.20;90.40
52181;DHT22;38158;53.338;6.514;2022-07-23T13:23:26;21.10;88.30
52181;DHT22;38158;53.338;6.514;2022-07-23T13:25:52;21.00;87.40
52181;DHT22;38158;53.338;6.514;2022-07-23T13:28:19;21.00;88.00
52181;DHT22;38158;53.338;6.514;2022-07-23T13:30:46;21.00;87.20
52181;DHT22;38158;53.338;6.514;2022-07-23T13:33:13;21.10;88.30
52181;DHT22;38158;53.338;6.514;2022-07-23T13:35:38;21.20;88.40
52181;DHT22;38158;53.338;6.514;2022-07-23T13:38:05;21.40;87.60
52181;DHT22;38158;53.338;6.514;2022-07-23T13:40:42;21.50;86.90
52181;DHT22;38158;53.338;6.514;2022-07-23T13:43:11;21.60;86.60
52181;DHT22;38158;53.338;6.514;2022-07-23T13:45:38;21.70;85.60
52181;DHT22;38158;53.338;6.514;2022-07-23T13:48:04;21.70;85.60
52181;DHT22;38158;53.338;6.514;2022-07-23T13:50:31;21.60;85.70
52181;DHT22;38158;53.338;6.514;2022-07-23T13:52:57;21.50;86.20
52181;DHT22;38158;53.338;6.514;2022-07-23T13:55:25;21.40;86.80
52181;DHT22;38158;53.338;6.514;2022-07-23T13:57:51;21.30;86.60
52181;DHT22;38158;53.338;6.514;2022-07-23T14:00:17;21.40;86.50
52181;DHT22;38158;53.338;6.514;2022-07-23T14:02:42;21.40;86.30
52181;DHT22;38158;53.338;6.514;2022-07-23T14:05:10;21.50;86.20
52181;DHT22;38158;53.338;6.514;2022-07-23T14:07:37;21.70;84.60
52181;DHT22;38158;53.338;6.514;2022-07-23T14:10:04;21.70;83.80
52181;DHT22;38158;53.338;6.514;2022-07-23T14:12:30;21.70;84.10
52181;DHT22;38158;53.338;6.514;2022-07-23T14:14:56;21.70;84.40
52181;DHT22;38158;53.338;6.514;2022-07-23T14:17:22;21.70;84.90
52181;DHT22;38158;53.338;6.514;2022-07-23T14:19:49;21.70;84.40
52181;DHT22;38158;53.338;6.514;2022-07-23T14:22:14;21.70;85.30
52181;DHT22;38158;53.338;6.514;2022-07-23T14:24:40;21.80;85.10
52181;DHT22;38158;53.338;6.514;2022-07-23T14:27:06;21.90;84.40
52181;DHT22;38158;53.338;6.514;2022-07-23T14:29:32;21.90;84.10
52181;DHT22;38158;53.338;6.514;2022-07-23T14:31:59;21.90;84.50
52181;DHT22;38158;53.338;6.514;2022-07-23T14:34:25;21.90;84.40
52181;DHT22;38158;53.338;6.514;2022-07-23T14:36:51;21.80;85.30
52181;DHT22;38158;53.338;6.514;2022-07-23T14:39:17;21.80;85.10
52181;DHT22;38158;53.338;6.514;2022-07-23T14:41:43;21.70;85.60
52181;DHT22;38158;53.338;6.514;2022-07-23T14:44:09;21.60;85.40
52181;DHT22;38158;53.338;6.514;2022-07-23T14:46:34;21.60;85.80
52181;DHT22;38158;53.338;6.514;2022-07-23T14:49:00;21.60;85.80
52181;DHT22;38158;53.338;6.514;2022-07-23T14:51:26;21.50;86.20
52181;DHT22;38158;53.338;6.514;2022-07-23T14:53:52;21.50;86.50
52181;DHT22;38158;53.338;6.514;2022-07-23T14:56:18;21.40;86.80
52181;DHT22;38158;53.338;6.514;2022-07-23T14:58:44;21.40;86.70
52181;DHT22;38158;53.338;6.514;2022-07-23T15:01:10;21.50;86.30
52181;DHT22;38158;53.338;6.514;2022-07-23T15:03:36;21.40;86.70
52181;DHT22;38158;53.338;6.514;2022-07-23T15:06:01;21.50;88.60
52181;DHT22;38158;53.338;6.514;2022-07-23T15:08:27;21.40;87.90
52181;DHT22;38158;53.338;6.514;2022-07-23T15:10:53;21.40;88.20
52181;DHT22;38158;53.338;6.514;2022-07-23T15:13:18;21.40;89.10
52181;DHT22;38158;53.338;6.514;2022-07-23T15:15:44;21.40;88.70
52181;DHT22;38158;53.338;6.514;2022-07-23T15:18:11;21.30;89.10
52181;DHT22;38158;53.338;6.514;2022-07-23T15:20:37;21.30;89.40
52181;DHT22;38158;53.338;6.514;2022-07-23T15:23:04;21.40;88.60
52181;DHT22;38158;53.338;6.514;2022-07-23T15:25:30;21.30;88.70
52181;DHT22;38158;53.338;6.514;2022-07-23T15:27:57;21.40;88.90
52181;DHT22;38158;53.338;6.514;2022-07-23T15:30:27;21.40;87.70
52181;DHT22;38158;53.338;6.514;2022-07-23T15:32:53;21.40;87.60
52181;DHT22;38158;53.338;6.514;2022-07-23T15:35:19;21.40;88.50
52181;DHT22;38158;53.338;6.514;2022-07-23T15:37:45;21.30;90.10
52181;DHT22;38158;53.338;6.514;2022-07-23T15:40:11;21.30;90.50
52181;DHT22;38158;53.338;6.514;2022-07-23T15:42:37;21.20;90.00
52181;DHT22;38158;53.338;6.514;2022-07-23T15:45:04;21.20;89.90
52181;DHT22;38158;53.338;6.514;2022-07-23T15:47:30;21.10;90.60
52181;DHT22;38158;53.338;6.514;2022-07-23T15:49:56;20.90;90.80
52181;DHT22;38158;53.338;6.514;2022-07-23T15:52:21;20.80;91.00
52181;DHT22;38158;53.338;6.514;2022-07-23T15:54:47;20.80;91.70
52181;DHT22;38158;53.338;6.514;2022-07-23T15:57:13;20.80;92.00
52181;DHT22;38158;53.338;6.514;2022-07-23T15:59:39;20.90;92.20
52181;DHT22;38158;53.338;6.514;2022-07-23T16:02:05;21.10;91.90
52181;DHT22;38158;53.338;6.514;2022-07-23T16:04:31;21.20;91.70
52181;DHT22;38158;53.338;6.514;2022-07-23T16:06:59;21.20;91.40
52181;DHT22;38158;53.338;6.514;2022-07-23T16:09:25;21.20;91.60
52181;DHT22;38158;53.338;6.514;2022-07-23T16:11:51;21.20;91.40
52181;DHT22;38158;53.338;6.514;2022-07-23T16:14:19;21.10;91.00
52181;DHT22;38158;53.338;6.514;2022-07-23T16:16:44;21.10;91.00
52181;DHT22;38158;53.338;6.514;2022-07-23T16:19:10;21.20;91.00
52181;DHT22;38158;53.338;6.514;2022-07-23T16:21:36;21.10;90.80
52181;DHT22;38158;53.338;6.514;2022-07-23T16:24:02;21.00;91.10